• Join FlightAware (Why Join?)
  • Login
  • US Flag 
08:34PM EDT


 

Airport Tracker/Info


-or-


 

Live Flight TrackerFlight Track Log ✈ UAL822 ✈ 27-Apr-2013 ✈ KORD - KIAH

Flight Track Log - Related Links

Times and Time Zones

All times are in EDT time to prevent confusion due to time zone crossing. See the UAL822 flight status page for this flight to view local times or setup timezone preferences in your user account.

Time Position Orientation Groundspeed Altitude Reporting Facility
EDT Latitude Longitude Course Direction KTS MPH feet Rate Location/Type
01:19PM 41.9167 -87.9500 253° West 154 177 3,200  Level Chicago TRACON
01:21PM 41.8834 -88.3161 255° West  Level FlightAware Approximate
01:21PM 41.8383 -88.0436 222° Southwest 237 273 6,500  Level Chicago Center
01:22PM 41.8402 -88.4489 255° West  Level FlightAware Approximate
01:22PM 41.7847 -88.1114 223° Southwest 265 305 9,300  Level Chicago Center
01:23PM 41.8101 -88.5888 254° West  Level FlightAware Approximate
01:23PM 41.7550 -88.2156 249° West 320 368 10,700  Level Chicago Center
01:24PM 41.7791 -88.7283 253° West  Level FlightAware Approximate
01:24PM 41.7533 -88.3769 269° West 364 419 13,100  Level Chicago Center
01:25PM 41.7480 -88.8677 253° West  Level FlightAware Approximate
01:25PM 41.7522 -88.5197 269° West 384 442 15,200  Level Chicago Center
01:26PM 41.7514 -88.6675 270° West 399 459 17,200 2,400 Climbing Chicago Center
01:27PM 41.7317 -88.8108 260° West 394 453 20,200 2,700 Climbing Chicago Center
01:28PM 41.7044 -88.9386 254° West 366 421 22,800 1,800 Climbing Chicago Center
01:29PM 41.6708 -89.0914 254° West 360 414 24,000 540 Climbing Chicago Center
01:30PM 41.6436 -89.2200 254° West 362 417 24,000  Level Chicago Center
01:31PM 41.6131 -89.3586 254° West 391 450 24,000  Level Chicago Center
01:32PM 41.5778 -89.5133 253° West 435 501 24,000  Level Chicago Center
01:34PM 41.5433 -89.6725 254° West 457 526 24,000  Level Chicago Center
01:35PM 41.5075 -89.8344 254° West 459 528 24,000  Level Chicago Center
01:36PM 41.4633 -90.0267 253° West 458 527 24,000 -60 Level Chicago Center
01:37PM 41.4264 -90.1878 253° West 458 527 23,900  Descending Chicago Center
01:38PM 41.3892 -90.3500 253° West 460 529 24,000  Climbing Chicago Center
01:39PM 41.3525 -90.5119 253° West 460 529 24,000  Level Chicago Center
01:40PM 41.3000 -90.6731 247° West 481 554 24,000  Level Chicago Center
01:41PM 41.2236 -90.8044 232° Southwest 456 525 24,000  Level Chicago Center
01:42PM 41.1289 -90.9642 232° Southwest 460 529 24,000  Level Chicago Center
01:43PM 41.0508 -91.0947 232° Southwest 455 524 24,000  Level Chicago Center
01:44PM 40.9722 -91.2258 232° Southwest 456 525 24,000  Level Chicago Center
01:45PM 40.8894 -91.3656 232° Southwest 460 529 24,000  Level Chicago Center
01:46PM 40.8114 -91.4961 232° Southwest 458 527 24,000  Level Chicago Center
01:47PM 40.7314 -91.6250 231° Southwest 457 526 24,000  Level Chicago Center
01:48PM 40.6519 -91.7553 231° Southwest 459 528 24,000 300 Level Chicago Center
01:49PM 40.5742 -91.8842 232° Southwest 453 521 24,700 1,140 Climbing Chicago Center
01:50PM 40.4794 -92.0369 231° Southwest 451 519 26,400 1,260 Climbing Chicago Center
01:51PM 40.3997 -92.1667 231° Southwest 455 524 27,400 1,080 Climbing Kansas City Center
01:52PM 40.3192 -92.2961 231° Southwest 458 527 28,800 1,200 Climbing Kansas City Center
01:53PM 40.2286 -92.4186 226° Southwest 440 506 30,000 540 Climbing Kansas City Center
01:54PM 40.1494 -92.5642 235° Southwest 440 506 30,000  Level Kansas City Center
01:55PM 40.0475 -92.6681 218° Southwest 436 502 30,000  Level Kansas City Center
01:56PM 39.9456 -92.7539 213° Southwest 438 504 30,000  Level Kansas City Center
01:57PM 39.8475 -92.8383 213° Southwest 429 494 30,000 180 Level Kansas City Center
01:58PM 39.7517 -92.9228 214° Southwest 419 482 30,400 660 Climbing Kansas City Center
01:59PM 39.6536 -93.0069 213° Southwest 424 488 31,400 1,200 Climbing Kansas City Center
02:00PM 39.5567 -93.0875 213° Southwest 419 482 33,000 1,020 Climbing Kansas City Center
02:01PM 39.4397 -93.1861 213° Southwest 419 482 33,600 480 Climbing Kansas City Center
02:02PM 39.3389 -93.2717 213° Southwest 432 497 34,000 180 Climbing Kansas City Center
02:03PM 39.2386 -93.3564 213° Southwest 435 501 34,000  Level Kansas City Center
02:05PM 39.1347 -93.4447 213° Southwest 435 501 34,000  Level Kansas City Center
02:06PM 39.0194 -93.5406 213° Southwest 440 506 34,000  Level Kansas City Center
02:07PM 38.9094 -93.6325 213° Southwest 438 504 34,000  Level Kansas City Center
02:08PM 38.8047 -93.7183 213° Southwest 443 510 34,000  Level Kansas City Center
02:09PM 38.7053 -93.8011 213° Southwest 444 511 34,000  Level Kansas City Center
02:10PM 38.6061 -93.8831 213° Southwest 443 510 34,000  Level Kansas City Center
02:11PM 38.4908 -93.9769 213° Southwest 439 505 34,000  Level Kansas City Center
02:12PM 38.3925 -94.0578 213° Southwest 439 505 34,000  Level Kansas City Center
02:13PM 38.2756 -94.1525 212° Southwest 440 506 34,000  Level Kansas City Center
02:14PM 38.1761 -94.2336 213° Southwest 443 510 34,000  Level Kansas City Center
02:15PM 38.0583 -94.3286 212° Southwest 445 512 34,000  Level Kansas City Center
02:16PM 37.9575 -94.4094 212° Southwest 447 514 34,000  Level Kansas City Center
02:17PM 37.8397 -94.5039 212° Southwest 448 516 34,000  Level Kansas City Center
02:18PM 37.7394 -94.5847 213° Southwest 446 513 34,000  Level Kansas City Center
02:19PM 37.6350 -94.6681 212° Southwest 442 509 34,000  Level Kansas City Center
02:20PM 37.5303 -94.7508 212° Southwest 443 510 34,000  Level Kansas City Center
02:21PM 37.4283 -94.8322 212° Southwest 438 504 34,000  Level Kansas City Center
02:22PM 37.3264 -94.9142 213° Southwest 433 498 34,000  Level Kansas City Center
02:23PM 37.2033 -95.0083 211° Southwest 432 497 34,000  Level Kansas City Center
02:24PM 37.1014 -95.0883 212° Southwest 432 497 34,000  Level Kansas City Center
02:25PM 36.9997 -95.1681 212° Southwest 431 496 34,000  Level Kansas City Center
02:26PM 36.8983 -95.2467 212° Southwest 429 494 34,000  Level Kansas City Center
02:27PM 36.7981 -95.3250 212° Southwest 427 491 34,000  Level Kansas City Center
02:28PM 36.6967 -95.4044 212° Southwest 430 495 34,000  Level Kansas City Center
02:29PM 36.5847 -95.4914 212° Southwest 429 494 34,000  Level Kansas City Center
02:30PM 36.4836 -95.5700 212° Southwest 429 494 34,000  Level Kansas City Center
02:31PM 36.3808 -95.6472 211° Southwest 430 495 34,000  Level Kansas City Center
02:32PM 36.2797 -95.7233 211° Southwest 427 491 34,000  Level Kansas City Center
02:33PM 36.1667 -95.7861 204° Southwest 429 494 34,000  Level Kansas City Center
02:34PM 36.0483 -95.8108 190° South 430 495 34,000  Level Kansas City Center
02:35PM 35.9083 -95.8567 195° South 434 499 34,000 480 Level Kansas City Center
02:36PM 35.7939 -95.8989 197° South 430 495 35,000 780 Climbing Kansas City Center
02:37PM 35.6797 -95.9403 196° South 427 491 35,700 540 Climbing Kansas City Center
02:38PM 35.5878 -95.9742 197° South 432 497 36,000 120 Climbing Fort Worth Center
02:39PM 35.4736 -96.0142 196° South 432 497 36,000  Level Fort Worth Center
02:40PM 35.3592 -96.0544 196° South 432 497 36,000  Level Fort Worth Center
02:41PM 35.2469 -96.0942 196° South 432 497 36,000  Level Fort Worth Center
02:42PM 35.1308 -96.1342 196° South 432 497 36,000  Level Fort Worth Center
02:43PM 35.0144 -96.1764 197° South 438 504 36,000  Level Fort Worth Center
02:44PM 34.8978 -96.2161 196° South 438 504 36,000  Level Fort Worth Center
02:45PM 34.7836 -96.2581 197° South 438 504 36,000  Level Fort Worth Center
02:46PM 34.6733 -96.2975 196° South 433 498 36,000  Level Fort Worth Center
02:47PM 34.5631 -96.3342 195° South 428 493 36,000 -60 Level Fort Worth Center
02:48PM 34.4528 -96.3733 196° South 417 480 35,900  Descending Fort Worth Center
02:49PM 34.3425 -96.4125 196° South 417 480 36,000  Climbing Fort Worth Center
02:50PM 34.2303 -96.4514 196° South 417 480 36,000  Level Fort Worth Center
02:51PM 34.1158 -96.4903 196° South 417 480 36,000  Level Fort Worth Center
02:52PM 34.0219 -96.5264 198° South 409 471 36,100  Climbing Fort Worth Center
02:53PM 33.9075 -96.5625 195° South 415 478 36,000 -60 Descending Fort Worth Center
02:54PM 33.7950 -96.5986 195° South 421 484 36,000  Level Fort Worth Center
02:55PM 33.6806 -96.6372 196° South 421 484 36,000  Level Fort Worth Center
02:56PM 33.5597 -96.6781 196° South 419 482 36,000  Level Fort Worth Center
02:57PM 33.4472 -96.7164 196° South 419 482 36,000  Level Fort Worth Center
02:58PM 33.3283 -96.7272 184° South 427 491 36,000  Level Fort Worth Center
02:59PM 33.2053 -96.7406 185° South 432 497 36,000  Level Fort Worth Center
03:00PM 33.0842 -96.7539 185° South 439 505 36,000  Level Fort Worth Center
03:01PM 32.9653 -96.7672 185° South 444 511 36,000  Level Fort Worth Center
03:02PM 32.8569 -96.7778 185° South 444 511 36,000  Level Fort Worth Center
03:03PM 32.7336 -96.7911 185° South 444 511 36,000  Level Fort Worth Center
03:04PM 32.6128 -96.8017 184° South 444 511 36,000  Level Fort Worth Center
03:05PM 32.4875 -96.7878 175° South 444 511 36,000  Level Fort Worth Center
03:06PM 32.3597 -96.7519 167° South 456 525 36,000  Level Fort Worth Center
03:07PM 32.2239 -96.7161 167° South 461 531 36,000  Level Fort Worth Center
03:08PM 32.1006 -96.6800 166° South 461 531 36,000  Level Fort Worth Center
03:09PM 31.9750 -96.6444 166° South 467 537 36,000 -60 Level Fort Worth Center
03:10PM 31.8517 -96.6086 166° South 467 537 35,900 -540 Descending Fort Worth Center
03:11PM 31.7261 -96.5708 166° South 459 528 35,000 -1,380 Descending Fort Worth Center
03:12PM 31.6217 -96.5408 166° South 465 535 33,300 -1,980 Descending Houston Center
03:13PM 31.4953 -96.5058 167° South 462 532 31,100 -2,520 Descending Houston Center
03:14PM 31.3644 -96.4542 161° South 482 555 28,200 -2,400 Descending Houston Center
03:15PM 31.2392 -96.3992 159° South 479 551 26,300 -1,500 Descending Houston Center
03:16PM 31.1233 -96.3208 150° Southeast 476 548 25,200 -1,560 Descending Houston Center
03:17PM 30.9919 -96.2289 149° Southeast 471 542 23,100 -1,860 Descending Houston Center
03:18PM 30.8814 -96.1528 149° Southeast 461 531 21,500 -2,100 Descending Houston Center
03:19PM 30.7675 -96.0786 151° Southeast 461 531 18,800 -2,520 Descending Houston Center
03:20PM 30.6633 -96.0072 149° Southeast 448 516 16,300 -2,940 Descending Houston Center
03:21PM 30.6272 -95.9836 151° Southeast 423 487 14,800 -4,020 Descending Houston Center
03:21PM 30.5828 -95.9522 149° Southeast 423 487 13,300 -2,940 Descending Houston Center
03:21PM 30.5664 -95.9378 143° Southeast 422 486 12,800 -1,320 Descending Houston Center
03:22PM 30.4819 -95.8814 150° Southeast 417 480 12,000 -780 Descending Houston Center
03:22PM 30.4650 -95.8689 148° Southeast 421 484 12,000 -120 Level Houston Center
03:23PM 30.3886 -95.7956 140° Southeast 414 476 11,900 -300 Descending Houston Center
03:23PM 30.3786 -95.7844 136° Southeast 413 475 11,700 -1,980 Descending Houston Center
03:24PM 30.3031 -95.7061 138° Southeast 400 460 9,900 -1,800 Descending Houston Center
03:24PM 30.2961 -95.6972 132° Southeast 405 466 9,900  Level Houston Center
03:25PM 30.2392 -95.6244 132° Southeast 315 362 9,900 -120 Level Houston Center
03:26PM 30.2347 -95.6153 119° Southeast 357 411 9,800 -1,200 Descending Houston Center
03:26PM 30.2058 -95.5339 112° Southeast 306 352 8,700 -1,620 Descending Houston Center
03:27PM 30.1950 -95.5081 116° Southeast 309 356 8,200 -1,620 Descending Houston Center
03:27PM 30.1700 -95.4417 114° Southeast 291 335 7,100 -1,200 Descending Houston Center
03:28PM 30.1633 -95.4217 111° Southeast 294 338 7,000 -120 Descending Houston Center
03:28PM 30.1392 -95.3558 113° Southeast 268 308 7,000 60 Level Houston Center
03:29PM 30.1331 -95.3397 114° Southeast 281 323 7,100  Climbing Houston Center
03:29PM 30.1117 -95.2844 114° Southeast 244 281 7,000  Descending Houston Center
03:30PM 30.1072 -95.2686 108° East 248 285 7,100  Climbing Houston Center
03:30PM 30.0881 -95.2100 111° Southeast 245 282 7,000  Descending Houston Center
03:31PM 30.0867 -95.1933 95° East 252 290 7,100  Climbing Houston Center
03:31PM 30.0931 -95.1272 84° East 253 291 7,000  Descending Houston Center
03:32PM 30.0947 -95.1133 82° East 253 291 7,100  Climbing Houston Center
03:32PM 30.0947 -95.0569 90° East 252 290 7,000  Descending Houston Center
03:33PM 30.0961 -95.0322 86° East 252 290 7,100  Climbing Houston Center
03:33PM 30.0972 -94.9722 89° East 255 293 7,000  Descending Houston Center
03:34PM 30.0992 -94.9497 84° East 256 295 7,100  Climbing Houston Center
03:34PM 30.0681 -94.9081 131° Southeast 245 282 7,000  Descending Houston Center
03:35PM 30.0403 -94.9078 180° South 244 281 7,100 -540 Climbing Houston Center
03:35PM 30.0136 -94.9319 218° Southwest 220 253 6,500 -1,200 Descending Houston Center
03:36PM 29.9986 -94.9556 234° Southwest 221 254 5,900 -1,560 Descending Houston Center
03:36PM 29.9942 -94.9922 262° West 224 258 5,100 -1,020 Descending Houston Center
03:37PM 29.9936 -95.0272 269° West 227 261 4,900 -1,020 Descending Houston Center
03:37PM 29.9925 -95.0647 268° West 229 264 4,100 -1,200 Descending Houston Center
03:38PM 29.9933 -95.0989 272° West 226 260 3,700 -720 Descending Houston Center